Tuesday, October 21, 2014
16:51 UTC
  |  Log In   |  Register Free
Airport Search:

Tyler Pounds Regional Airport
(KTYR)

FAA data valid effective September 18, 2014 - November 13, 2014 (unless otherwise noted).

 
 
 
 
 
 
 
 
 
 
 
 
 
 

Current Aviation Weather for Tyler Pounds Regional Airport (KTYR)

The most recent METAR observation for KTYR was updated at: 1621
METAR Summary (Translated METAR)
KTYR
211553Z VRB03KT 10SM CLR 23/12 A3013 RMK AO2 SLP196 T02280117
KJDD
211555Z AUTO 11003KT 10SM CLR 22/14 A3014 RMK AO2
(23.8 nm NW from KTYR)
KJSO
211555Z AUTO 07006KT 10SM CLR 21/12 A3014 RMK AO2 T02130126
(30.6 nm SE from KTYR)
TAF Summary (Translated TAF)
KTYR
211120Z 2112/2212 00000KT P6SM SKC FM211500 11005KT P6SM SCT045 FM220000 09003KT P6SM SKC
  Airport Weather Conditions for KTYR

 Current Weather at TYR
73° F
Fair
Variable winds at 3.5 mph
TYR NOAA Radar

Pressure: 30.13 in
Humidity: 50%
Wind: Variable at 3.5 MPH (3 KT)
Dew Point: 53.1°F
Visibility: 10.00 mi


Airport Weather Forecast for KTYR

Translated METAR and TAF for KTYR
Translated METAR for KTYR (1646 UTC 21 October 2014)
found at http://aviationweather.gov/adds/metars/
 
METAR text: KTYR 211553Z VRB03KT 10SM CLR 23/12 A3013 RMK AO2 SLP196 T02280117
Conditions at: KTYR (TYLER , TX, US) observed 1553 UTC 21 October 2014
Temperature: 22.8°C (73°F)
Dewpoint: 11.7°C (53°F) [RH = 50%]
Pressure (altimeter): 30.13 inches Hg (1020.4 mb)
[Sea-level pressure: 1019.6 mb]
Winds: variable direction winds at 3 MPH (3 knots; 1.6 m/s)
Visibility: 10 or more miles (16+ km)
Ceiling: at least 12,000 feet AGL
Clouds: sky clear below 12,000 feet AGL
Weather: no significant weather observed at this time
Translated TAF for KTYR
Forecast for: KTYR (TYLER , TX, US)
TAF Text: KTYR 211120Z 2112/2212 00000KT P6SM SKC
Forecast period: 1200 to 1500 UTC 21 October 2014
Forecast type: FROM: standard forecast or significant change
Winds: calm
Visibility: 6 or more miles (10+ km)
Clouds: clear skies
Weather: no significant weather forecast for this period
TAF Text: FM211500 11005KT P6SM SCT045
Forecast period: 1500 UTC 21 October 2014 to 0000 UTC 22 October 2014
Forecast type: FROM: standard forecast or significant change
Winds: from the ESE (110 degrees) at 6 MPH (5 knots; 2.6 m/s)
Visibility: 6 or more miles (10+ km)
Clouds: scattered clouds at 4500 feet AGL
Weather: no significant weather forecast for this period
TAF Text: FM220000 09003KT P6SM SKC
Forecast period: 0000 to 1200 UTC 22 October 2014
Forecast type: FROM: standard forecast or significant change
Winds: from the E (90 degrees) at 3 MPH (3 knots; 1.6 m/s)
Visibility: 6 or more miles (10+ km)
Clouds: clear skies
Weather: no significant weather forecast for this period

Find All Airport Services Find A Hotel Find A Rental Car Find A Golf Course Find A Restaurant $100 Hamburger



FBO's on the Field
FBO Company Facility Photos Services Transportation Aviation Fuel Prices: Prices include tax
Catering Weather Repair Courtesy Rental Type 100LL JetA JetA+ MOGAS 8087
 
Jet Center of Tyler

Currently rated 5 by 1 person
FS: Phillips 66
Last Updated: Oct-21
Login to update fuel prices
SS:
Contact Jet Center of TylerMore FBO Information
 
Johnson Aviation, Inc

Currently rated 4.1 by 2 people
FS:Avfuel
Last Updated: Oct-06
Login to update fuel prices
SS:
Contact Johnson Aviation, IncMore FBO Information
 
Add another FBO Facility Photos Catering Weather Repair Courtesy Rental Type 100LL JetA JetA+ MOGAS 8087
Services Transportation Aviation Fuel Prices: Prices include tax


model-print
model-print
model-print
model-print